Time;durP1;ratioP1;P1;durP2;ratioP2;P2;SDS_P1;SDS_P2;PMS_P1;PMS_P2;Temp;Humidity;BMP_temperature;BMP_pressure;BME280_temperature;BME280_humidity;BME280_pressure;Samples;Min_cycle;Max_cycle;Signal;HPM_P1;HPM_P2
2022/03/02 00:00:09;;;;;;;22.20;13.30;;;;;;;4.11;52.78;100770.86;117372;1184;23548;-58
2022/03/02 00:02:37;;;;;;;22.70;12.10;;;;;;;4.13;52.89;100765.86;117375;1185;23638;-57
2022/03/02 00:05:06;;;;;;;22.40;13.70;;;;;;;4.17;52.79;100767.69;117374;1188;21885;-58
2022/03/02 00:07:34;;;;;;;21.60;13.70;;;;;;;4.19;52.69;100768.94;117372;1185;21855;-53
2022/03/02 00:10:22;;;;;;;22.80;13.80;;;;;;;4.20;52.73;100760.95;117355;1185;23012;-54
2022/03/02 00:12:50;;;;;;;21.30;14.00;;;;;;;4.20;52.66;100759.38;117410;1184;21890;-53
2022/03/02 00:15:18;;;;;;;20.60;13.30;;;;;;;4.20;52.59;100760.25;117415;1185;21848;-53
2022/03/02 00:17:47;;;;;;;23.10;14.30;;;;;;;4.19;52.67;100757.99;117372;1185;21906;-57
2022/03/02 00:20:15;;;;;;;23.60;14.20;;;;;;;4.20;52.64;100750.19;117382;1183;21919;-58
2022/03/02 00:22:43;;;;;;;20.90;12.90;;;;;;;4.21;52.79;100745.35;117399;1184;21859;-58
2022/03/02 00:25:12;;;;;;;22.30;14.10;;;;;;;4.21;52.59;100739.97;117347;1185;21863;-54
2022/03/02 00:27:40;;;;;;;21.70;13.90;;;;;;;4.22;52.79;100741.02;117377;1180;21894;-58
2022/03/02 00:30:10;;;;;;;20.80;14.10;;;;;;;4.24;52.65;100738.27;117379;1185;21877;-54
2022/03/02 00:32:40;;;;;;;;;;;;;;;4.27;52.63;100737.28;117359;1176;21858;-57
2022/03/02 00:35:08;;;;;;;22.30;13.70;;;;;;;4.27;52.62;100733.65;117531;1185;21852;-58
2022/03/02 00:37:36;;;;;;;22.10;15.50;;;;;;;4.27;52.71;100730.70;117375;1185;22085;-57
2022/03/02 00:40:05;;;;;;;23.30;14.30;;;;;;;4.27;52.67;100724.64;117371;1180;21852;-57
2022/03/02 00:42:34;;;;;;;22.60;14.40;;;;;;;4.27;52.80;100723.39;117417;1185;23703;-54
2022/03/02 00:45:02;;;;;;;21.50;14.30;;;;;;;4.27;52.57;100723.76;117358;1185;21890;-57
2022/03/02 00:47:31;;;;;;;20.30;13.90;;;;;;;4.28;52.84;100722.39;117402;1183;21891;-56
2022/03/02 00:49:59;;;;;;;20.90;13.50;;;;;;;4.27;52.71;100719.75;117468;1185;22955;-57
2022/03/02 00:52:28;;;;;;;19.80;12.70;;;;;;;4.21;52.80;100716.16;117427;1185;22939;-58
2022/03/02 00:54:56;;;;;;;20.00;13.60;;;;;;;4.22;52.78;100712.73;117340;1185;21851;-54
2022/03/02 00:57:25;;;;;;;18.60;12.60;;;;;;;4.22;52.78;100708.02;117381;1185;21885;-57
2022/03/02 00:59:57;;;;;;;18.30;12.80;;;;;;;4.22;52.79;100701.06;117316;1176;21852;-57
2022/03/02 01:02:26;;;;;;;19.30;14.00;;;;;;;4.21;52.74;100700.17;117353;1179;21856;-57
2022/03/02 01:04:55;;;;;;;18.70;13.40;;;;;;;4.21;52.99;100698.45;117475;1180;21847;-54
2022/03/02 01:07:23;;;;;;;21.10;14.70;;;;;;;4.22;52.81;100694.13;117352;1184;21863;-58
2022/03/02 01:09:51;;;;;;;20.80;14.30;;;;;;;4.22;52.91;100694.27;117302;1183;21849;-54
2022/03/02 01:12:21;;;;;;;17.90;12.00;;;;;;;4.12;52.97;100687.86;117339;1185;21858;-57
2022/03/02 01:14:50;;;;;;;19.10;13.30;;;;;;;4.10;53.07;100686.94;117391;1182;21850;-58
2022/03/02 01:17:20;;;;;;;18.00;12.90;;;;;;;4.09;53.03;100682.95;117368;1185;22168;-57
2022/03/02 01:19:49;;;;;;;17.00;12.60;;;;;;;4.09;53.05;100679.47;117336;1185;24179;-57
2022/03/02 01:22:17;;;;;;;19.20;13.70;;;;;;;4.08;53.04;100676.31;117356;1185;21902;-53
2022/03/02 01:24:45;;;;;;;18.60;13.70;;;;;;;4.05;52.91;100672.26;117358;1182;21855;-54
2022/03/02 01:27:13;;;;;;;18.20;12.50;;;;;;;4.03;53.13;100673.96;117406;1185;21852;-57
2022/03/02 01:29:42;;;;;;;17.10;12.90;;;;;;;4.00;52.94;100669.75;117435;1185;21860;-58
2022/03/02 01:32:10;;;;;;;17.60;12.50;;;;;;;3.98;53.06;100672.30;117343;1183;21853;-58
2022/03/02 01:34:39;;;;;;;19.00;12.80;;;;;;;3.96;53.00;100672.27;117379;1184;23560;-58
2022/03/02 01:37:07;;;;;;;17.90;12.70;;;;;;;3.94;53.06;100672.42;117351;1182;22600;-57
2022/03/02 01:39:35;;;;;;;19.20;13.60;;;;;;;3.96;53.03;100673.15;117450;1183;23480;-58
2022/03/02 01:42:05;;;;;;;18.00;12.90;;;;;;;3.96;53.04;100669.86;117370;1182;21903;-58
2022/03/02 01:44:34;;;;;;;19.10;13.10;;;;;;;3.97;53.23;100670.73;117373;1183;21849;-57
2022/03/02 01:47:04;;;;;;;20.00;14.20;;;;;;;3.99;53.28;100667.98;117355;1185;23635;-57
2022/03/02 01:49:33;;;;;;;22.30;14.40;;;;;;;3.99;53.16;100668.52;117377;1182;21840;-54
2022/03/02 01:52:02;;;;;;;19.10;13.80;;;;;;;3.99;53.08;100668.50;117340;1185;21855;-57
2022/03/02 01:54:30;;;;;;;17.10;12.40;;;;;;;3.99;53.15;100663.64;117336;1181;21851;-57
2022/03/02 01:56:58;;;;;;;18.80;13.20;;;;;;;3.97;53.23;100664.65;117366;1185;21919;-58
2022/03/02 01:59:26;;;;;;;17.10;12.00;;;;;;;3.94;53.20;100659.39;117392;1183;23533;-57
2022/03/02 02:01:55;;;;;;;18.90;13.70;;;;;;;3.93;53.19;100658.14;117412;1185;21885;-57
2022/03/02 02:04:23;;;;;;;17.20;12.50;;;;;;;3.91;53.14;100655.88;117210;1185;21896;-54
2022/03/02 02:06:52;;;;;;;18.00;13.70;;;;;;;3.91;53.32;100652.20;117397;1185;21894;-54
2022/03/02 02:09:20;;;;;;;19.00;12.50;;;;;;;3.91;53.34;100649.77;117353;1182;21855;-53
2022/03/02 02:11:49;;;;;;;16.70;12.80;;;;;;;3.90;53.16;100649.95;117381;1182;21832;-54
2022/03/02 02:14:17;;;;;;;20.80;14.10;;;;;;;3.90;53.17;100653.57;117388;1185;21848;-53
2022/03/02 02:16:46;;;;;;;19.40;14.00;;;;;;;3.86;53.26;100654.38;117410;1184;21900;-58
2022/03/02 02:19:15;;;;;;;18.00;12.30;;;;;;;3.89;53.19;100655.83;117477;1184;21906;-54
2022/03/02 02:21:46;;;;;;;18.70;13.00;;;;;;;3.90;53.26;100651.13;117385;1185;21851;-57
2022/03/02 02:24:15;;;;;;;18.90;13.40;;;;;;;3.89;53.32;100650.61;117062;1186;23588;-57
2022/03/02 02:26:43;;;;;;;17.70;13.10;;;;;;;3.84;53.27;100645.13;117353;1185;23532;-57
2022/03/02 02:29:11;;;;;;;17.60;12.80;;;;;;;3.81;53.24;100640.21;117367;1182;21905;-57
2022/03/02 02:31:40;;;;;;;17.50;12.90;;;;;;;3.79;53.36;100636.02;117373;1182;21998;-54
2022/03/02 02:34:09;;;;;;;17.10;12.10;;;;;;;3.78;53.35;100633.38;117399;1185;22902;-57
2022/03/02 02:36:38;;;;;;;16.30;12.90;;;;;;;3.78;53.31;100633.20;117355;1182;21843;-54
2022/03/02 02:39:06;;;;;;;18.10;13.30;;;;;;;3.79;53.44;100632.89;117002;1186;21859;-57
2022/03/02 02:41:34;;;;;;;18.50;13.00;;;;;;;3.79;53.48;100631.66;117371;1185;21913;-58
2022/03/02 02:44:04;;;;;;;19.20;13.50;;;;;;;3.78;53.36;100628.17;117322;1181;21837;-55
2022/03/02 02:46:32;;;;;;;19.40;13.80;;;;;;;3.79;53.44;100624.73;117426;1185;21853;-55
2022/03/02 02:49:08;;;;;;;18.30;13.60;;;;;;;3.82;53.51;100617.65;117249;1189;23513;-58
2022/03/02 02:51:36;;;;;;;19.00;13.20;;;;;;;3.80;53.46;100615.54;117358;1185;21868;-54
2022/03/02 02:54:05;;;;;;;19.00;13.40;;;;;;;3.80;53.34;100612.59;117387;1185;21853;-54
2022/03/02 02:56:33;;;;;;;16.60;12.20;;;;;;;3.81;53.59;100612.79;117597;1186;23989;-54
2022/03/02 02:59:02;;;;;;;16.50;12.50;;;;;;;3.83;53.45;100611.25;117476;1180;22911;-55
2022/03/02 03:01:31;;;;;;;;;;;;;;;3.88;53.42;100614.30;117361;1185;21980;-58
2022/03/02 03:04:00;;;;;;;16.60;11.30;;;;;;;3.88;53.30;100613.27;117457;1185;21843;-54
2022/03/02 03:06:28;;;;;;;17.80;13.40;;;;;;;3.88;53.34;100611.70;117324;1184;21843;-54
2022/03/02 03:08:57;;;;;;;16.90;12.60;;;;;;;3.90;53.46;100613.81;117389;1184;21889;-55
2022/03/02 03:11:25;;;;;;;17.10;12.40;;;;;;;3.91;53.48;100609.32;117401;1182;21849;-54
2022/03/02 03:13:53;;;;;;;19.60;13.00;;;;;;;3.84;53.29;100611.81;117435;1185;21856;-53
2022/03/02 03:16:22;;;;;;;17.40;12.70;;;;;;;3.84;53.49;100610.58;117451;1185;21904;-54
2022/03/02 03:19:01;;;;;;;17.80;12.70;;;;;;;3.84;53.55;100604.17;117351;1176;21842;-59
2022/03/02 03:21:29;;;;;;;19.50;13.80;;;;;;;3.86;53.43;100604.73;117375;1186;21860;-54
2022/03/02 03:23:57;;;;;;;19.50;13.90;;;;;;;3.89;53.47;100601.13;117321;1180;21928;-54
2022/03/02 03:26:26;;;;;;;19.10;13.80;;;;;;;3.91;53.56;100593.87;117312;1185;23482;-54
2022/03/02 03:28:54;;;;;;;17.20;12.30;;;;;;;3.90;53.46;100588.81;118697;1185;23616;-57
2022/03/02 03:31:22;;;;;;;16.80;12.40;;;;;;;3.91;53.55;100585.70;117258;1182;21870;-53
2022/03/02 03:33:52;;;;;;;;;;;;;;;3.91;53.55;100583.29;117340;1188;21825;-54
2022/03/02 03:36:21;;;;;;;15.70;11.90;;;;;;;3.92;53.55;100582.95;117447;1182;21836;-57
2022/03/02 03:38:49;;;;;;;20.30;14.00;;;;;;;3.92;53.46;100583.13;117398;1185;21853;-54
2022/03/02 03:41:17;;;;;;;20.70;14.00;;;;;;;3.92;53.74;100581.91;117301;1186;22840;-57
2022/03/02 03:43:47;;;;;;;18.40;13.30;;;;;;;3.92;53.48;100580.70;117389;1183;23603;-53
2022/03/02 03:46:15;;;;;;;21.70;14.30;;;;;;;3.92;53.61;100579.15;117294;1185;21885;-57
2022/03/02 03:48:43;;;;;;;20.50;14.70;;;;;;;3.93;53.53;100575.02;117298;1185;21855;-54
2022/03/02 03:51:11;;;;;;;21.00;13.90;;;;;;;3.95;53.60;100574.67;117364;1176;23465;-56
2022/03/02 03:53:40;;;;;;;19.30;13.40;;;;;;;3.96;53.61;100569.14;117332;1185;21850;-53
2022/03/02 03:56:08;;;;;;;19.10;13.90;;;;;;;4.00;53.64;100568.16;117415;1186;21868;-57
2022/03/02 03:58:36;;;;;;;21.50;14.90;;;;;;;4.00;53.51;100559.47;117290;1185;21849;-57
2022/03/02 04:01:05;;;;;;;21.40;14.60;;;;;;;3.98;53.65;100554.59;117358;1176;21843;-54
2022/03/02 04:03:37;;;;;;;20.60;15.40;;;;;;;3.97;53.62;100546.94;117377;1185;21890;-54
2022/03/02 04:06:05;;;;;;;18.60;14.30;;;;;;;3.96;53.65;100542.40;117351;1185;22900;-57
2022/03/02 04:08:34;;;;;;;24.00;13.90;;;;;;;3.96;53.63;100537.19;117373;1185;21876;-54
2022/03/02 04:11:03;;;;;;;20.90;14.70;;;;;;;3.96;53.52;100532.15;117381;1185;23457;-54
2022/03/02 04:13:32;;;;;;;21.20;13.90;;;;;;;3.93;53.73;100532.80;117420;1185;21837;-56
2022/03/02 04:16:00;;;;;;;19.10;12.80;;;;;;;3.94;53.53;100533.00;117383;1185;21895;-54
2022/03/02 04:18:31;;;;;;;20.20;14.60;;;;;;;3.99;53.48;100526.64;117313;1182;21856;-57
2022/03/02 04:21:00;;;;;;;21.40;14.50;;;;;;;3.95;53.59;100522.06;117338;1180;21853;-57
2022/03/02 04:23:28;;;;;;;22.90;14.40;;;;;;;4.01;53.38;100517.48;117393;1185;21931;-57
2022/03/02 04:25:59;;;;;;;23.10;15.50;;;;;;;4.09;53.25;100519.02;117386;1182;23550;-56
2022/03/02 04:28:29;;;;;;;22.10;15.70;;;;;;;4.10;53.32;100514.15;117365;1180;21969;-53
2022/03/02 04:30:57;;;;;;;25.10;15.30;;;;;;;4.07;53.29;100513.58;117358;1186;21853;-54
2022/03/02 04:33:25;;;;;;;20.60;15.20;;;;;;;3.98;53.53;100516.20;117308;1185;21853;-54
2022/03/02 04:35:53;;;;;;;23.20;15.90;;;;;;;3.98;53.52;100518.12;117362;1176;21973;-54
2022/03/02 04:38:21;;;;;;;24.60;16.10;;;;;;;3.97;53.53;100524.38;117403;1176;21849;-58
2022/03/02 04:40:49;;;;;;;22.60;14.70;;;;;;;3.99;53.58;100528.20;117321;1185;22810;-54
2022/03/02 04:43:18;;;;;;;23.80;15.80;;;;;;;4.01;53.64;100528.07;117310;1183;21848;-57
2022/03/02 04:45:46;;;;;;;23.10;15.20;;;;;;;4.03;53.57;100528.61;117404;1185;21840;-54
2022/03/02 04:48:15;;;;;;;21.10;15.10;;;;;;;4.01;53.58;100531.38;117337;1185;21887;-54
2022/03/02 04:50:48;;;;;;;24.80;16.00;;;;;;;4.00;53.69;100532.39;117344;1185;21953;-54
2022/03/02 04:53:16;;;;;;;20.80;13.90;;;;;;;4.01;53.80;100536.77;117395;1185;21845;-57
2022/03/02 04:55:45;;;;;;;24.90;16.40;;;;;;;4.05;53.73;100540.64;117300;1180;21902;-55
2022/03/02 04:58:13;;;;;;;24.20;15.60;;;;;;;4.10;53.62;100542.11;117380;1183;23535;-56
2022/03/02 05:00:41;;;;;;;24.80;14.80;;;;;;;4.14;53.65;100543.92;117342;1182;22638;-57
2022/03/02 05:03:09;;;;;;;24.10;15.50;;;;;;;4.17;53.75;100549.17;117370;1185;21843;-57
2022/03/02 05:05:38;;;;;;;24.80;15.20;;;;;;;4.22;53.59;100553.42;117408;1183;22921;-55
2022/03/02 05:08:06;;;;;;;22.60;15.70;;;;;;;4.25;53.64;100550.35;117349;1186;21844;-55
2022/03/02 05:10:34;;;;;;;24.90;15.10;;;;;;;4.29;53.66;100549.55;117330;1185;21899;-55
2022/03/02 05:13:03;;;;;;;22.20;15.30;;;;;;;4.33;53.56;100548.04;117456;1184;21836;-54
2022/03/02 05:15:32;;;;;;;24.30;14.80;;;;;;;4.38;53.45;100548.30;117418;1185;21884;-53
2022/03/02 05:18:01;;;;;;;21.90;15.40;;;;;;;4.39;53.46;100542.77;117332;1182;21842;-57
2022/03/02 05:20:30;;;;;;;22.60;16.00;;;;;;;4.39;53.49;100538.77;117365;1185;22957;-54
2022/03/02 05:22:58;;;;;;;20.40;14.60;;;;;;;4.33;53.29;100541.10;117328;1185;21848;-53
2022/03/02 05:25:26;;;;;;;19.20;13.90;;;;;;;4.24;53.43;100549.45;117340;1183;21840;-53
2022/03/02 05:27:55;;;;;;;23.50;14.20;;;;;;;4.20;53.53;100548.88;117300;1185;21868;-54
2022/03/02 05:30:23;;;;;;;19.40;13.80;;;;;;;4.19;53.58;100555.29;117344;1185;21934;-55
2022/03/02 05:32:51;;;;;;;18.10;13.60;;;;;;;4.21;53.56;100554.09;117418;1182;21912;-54
2022/03/02 05:35:19;;;;;;;20.40;14.10;;;;;;;4.21;53.44;100553.23;117381;1183;21870;-57
2022/03/02 05:37:47;;;;;;;20.00;13.90;;;;;;;4.21;53.39;100554.27;117313;1183;21850;-54
2022/03/02 05:40:17;;;;;;;18.20;12.60;;;;;;;4.17;53.54;100553.17;117360;1185;21858;-57
2022/03/02 05:42:53;;;;;;;19.90;13.30;;;;;;;4.15;53.58;100554.70;117439;1182;21856;-57
2022/03/02 05:45:22;;;;;;;18.40;13.60;;;;;;;4.14;53.84;100551.38;117324;1185;21838;-54
2022/03/02 05:47:50;;;;;;;19.80;14.10;;;;;;;4.12;53.70;100548.59;117331;1185;23657;-54
2022/03/02 05:50:18;;;;;;;20.40;14.00;;;;;;;4.11;53.55;100554.13;117363;1183;24227;-58
2022/03/02 05:52:47;;;;;;;20.20;13.90;;;;;;;4.09;53.69;100550.96;117483;1185;21848;-57
2022/03/02 05:55:15;;;;;;;18.90;12.90;;;;;;;4.09;53.79;100551.12;117388;1184;23680;-58
2022/03/02 05:57:43;;;;;;;19.30;13.40;;;;;;;4.10;53.62;100550.27;117155;1183;21843;-59
2022/03/02 06:00:13;;;;;;;16.70;11.90;;;;;;;4.09;53.64;100549.38;117414;1183;21861;-60
2022/03/02 06:02:42;;;;;;;19.40;13.70;;;;;;;4.10;53.67;100551.51;117358;1181;22913;-55
2022/03/02 06:05:11;;;;;;;18.00;11.90;;;;;;;4.09;53.43;100554.59;117349;1180;23500;-54
2022/03/02 06:07:39;;;;;;;18.50;12.90;;;;;;;4.02;53.68;100549.45;117403;1182;23602;-54
2022/03/02 06:10:08;;;;;;;18.80;12.20;;;;;;;4.00;53.62;100548.02;117386;1186;21885;-55
2022/03/02 06:12:37;;;;;;;16.40;11.50;;;;;;;3.98;53.44;100543.11;117387;1185;21837;-58
2022/03/02 06:15:07;;;;;;;14.60;10.80;;;;;;;3.93;53.56;100543.75;117265;1182;21888;-60
2022/03/02 06:17:35;;;;;;;18.40;12.60;;;;;;;3.91;53.60;100542.98;117397;1183;23542;-60
2022/03/02 06:20:05;;;;;;;19.30;11.80;;;;;;;3.88;53.63;100537.92;117411;1185;23612;-60
2022/03/02 06:22:35;;;;;;;16.90;11.80;;;;;;;3.86;53.57;100539.97;117342;1184;23437;-56
2022/03/02 06:25:05;;;;;;;16.30;12.00;;;;;;;3.83;53.59;100536.27;117405;1185;21836;-61
2022/03/02 06:27:34;;;;;;;16.80;11.90;;;;;;;3.80;53.63;100535.86;117335;1182;21862;-56
2022/03/02 06:30:06;;;;;;;16.50;12.10;;;;;;;3.76;53.71;100535.45;117349;1182;21892;-60
2022/03/02 06:32:34;;;;;;;17.20;11.60;;;;;;;3.76;53.75;100532.66;117310;1182;21907;-61
2022/03/02 06:35:03;;;;;;;16.40;11.40;;;;;;;3.75;53.66;100533.35;117331;1183;21846;-56
2022/03/02 06:37:33;;;;;;;15.30;10.50;;;;;;;3.74;53.60;100534.55;117317;1185;23534;-61
2022/03/02 06:40:10;;;;;;;15.70;10.90;;;;;;;3.73;53.69;100531.08;117343;1185;22636;-62
2022/03/02 06:43:02;;;;;;;19.90;11.40;;;;;;;3.73;53.57;100533.16;117380;1183;21855;-57
2022/03/02 06:46:00;;;;;;;34.00;12.80;;;;;;;3.77;53.77;100531.46;117321;1185;21862;-57
2022/03/02 06:48:42;;;;;;;24.30;12.70;;;;;;;3.82;53.72;100534.86;117310;1185;22796;-59
2022/03/02 06:51:11;;;;;;;16.60;11.10;;;;;;;3.84;53.62;100535.42;117309;1185;24213;-56
2022/03/02 06:53:40;;;;;;;15.40;10.60;;;;;;;3.83;53.49;100531.59;117498;1182;21850;-60
2022/03/02 06:56:08;;;;;;;17.30;11.70;;;;;;;3.82;53.63;100529.65;117383;1182;22623;-56
2022/03/02 06:58:51;;;;;;;16.70;11.90;;;;;;;3.80;53.63;100529.09;117409;1182;23660;-57
2022/03/02 07:01:28;;;;;;;18.70;11.30;;;;;;;3.76;53.76;100524.33;117417;1185;22844;-62
2022/03/02 07:03:57;;;;;;;15.10;10.90;;;;;;;3.74;53.56;100520.48;117361;1183;24148;-62
2022/03/02 07:06:27;;;;;;;12.60;9.60;;;;;;;3.75;53.82;100518.77;117458;1183;22799;-56
2022/03/02 07:08:55;;;;;;;14.60;11.20;;;;;;;3.76;53.77;100513.23;117434;1186;22930;-62
2022/03/02 07:11:25;;;;;;;14.70;10.60;;;;;;;3.79;53.85;100509.80;117386;1183;22907;-61
2022/03/02 07:13:59;;;;;;;15.30;11.10;;;;;;;3.80;53.80;100507.04;117411;1182;21850;-58
2022/03/02 07:16:28;;;;;;;18.80;12.20;;;;;;;3.83;53.69;100503.46;117297;1185;23432;-61
2022/03/02 07:18:57;;;;;;;16.10;11.70;;;;;;;3.87;53.91;100499.89;117191;1185;21953;-62
2022/03/02 07:21:28;;;;;;;17.90;11.80;;;;;;;3.89;53.72;100496.45;117104;1183;21938;-56
2022/03/02 07:24:22;;;;;;;14.60;10.40;;;;;;;3.87;53.78;100494.49;117173;1185;21896;-62
2022/03/02 07:26:52;;;;;;;15.20;11.00;;;;;;;3.82;53.93;100497.70;117311;1182;21931;-56
2022/03/02 07:29:22;;;;;;;14.30;10.00;;;;;;;3.82;53.81;100497.19;117226;1186;23497;-62
2022/03/02 07:31:53;;;;;;;15.50;10.80;;;;;;;3.83;53.92;100492.69;117539;1183;22859;-64
2022/03/02 07:34:21;;;;;;;18.10;12.20;;;;;;;3.84;53.80;100495.83;117497;1185;21897;-64
2022/03/02 07:36:50;;;;;;;19.50;12.50;;;;;;;3.85;53.88;100491.52;117246;1182;21889;-63
2022/03/02 07:39:18;;;;;;;20.20;12.00;;;;;;;3.82;53.96;100488.87;117355;1185;23559;-56
2022/03/02 07:41:46;;;;;;;15.90;11.50;;;;;;;3.83;54.04;100491.14;117286;1178;21878;-56
2022/03/02 07:44:16;;;;;;;13.70;9.90;;;;;;;3.84;54.14;100486.29;117322;1182;23648;-56
2022/03/02 07:46:45;;;;;;;15.50;11.80;;;;;;;3.87;54.11;100488.77;117277;1185;21983;-63
2022/03/02 07:49:13;;;;;;;15.00;11.10;;;;;;;3.90;54.12;100487.95;117364;1185;21846;-65
2022/03/02 07:51:42;;;;;;;13.50;9.70;;;;;;;3.93;54.26;100489.04;117386;1185;22940;-57
2022/03/02 07:54:10;;;;;;;12.70;9.80;;;;;;;3.95;54.18;100487.52;117352;1182;21981;-64
2022/03/02 07:56:40;;;;;;;14.30;10.40;;;;;;;4.00;54.10;100486.38;117302;1186;21852;-56
2022/03/02 07:59:08;;;;;;;12.80;9.90;;;;;;;4.04;54.18;100486.26;117512;1185;21850;-65
2022/03/02 08:01:41;;;;;;;12.50;9.20;;;;;;;4.06;54.12;100484.21;117235;1185;22987;-65
2022/03/02 08:04:09;;;;;;;14.20;9.20;;;;;;;4.08;54.16;100481.47;117352;1182;21844;-56
2022/03/02 08:06:38;;;;;;;12.20;9.60;;;;;;;4.10;53.90;100480.11;117405;1185;21846;-56
2022/03/02 08:09:09;;;;;;;12.40;9.00;;;;;;;4.13;53.95;100479.65;117374;1185;21846;-65
2022/03/02 08:11:38;;;;;;;11.90;8.90;;;;;;;4.14;54.11;100477.56;117311;1185;22975;-56
2022/03/02 08:14:06;;;;;;;10.80;8.10;;;;;;;4.14;53.94;100475.33;117350;1186;21890;-55
2022/03/02 08:16:35;;;;;;;10.50;8.20;;;;;;;4.17;53.94;100477.62;117389;1183;23453;-65
2022/03/02 08:19:04;;;;;;;12.10;8.40;;;;;;;4.21;53.83;100479.05;117434;1185;22978;-57
2022/03/02 08:21:35;;;;;;;9.30;7.40;;;;;;;4.24;53.99;100475.98;117348;1186;21850;-59
2022/03/02 08:24:05;;;;;;;10.80;8.50;;;;;;;4.26;54.01;100476.88;117361;1183;22610;-56
2022/03/02 08:26:36;;;;;;;10.40;7.70;;;;;;;4.28;53.95;100471.71;117316;1185;21947;-63
2022/03/02 08:29:06;;;;;;;9.60;7.20;;;;;;;4.31;54.00;100468.97;118294;1185;21860;-55
2022/03/02 08:31:36;;;;;;;9.10;7.00;;;;;;;4.34;54.12;100463.96;117387;1185;22949;-65
2022/03/02 08:34:06;;;;;;;10.60;7.30;;;;;;;4.35;53.97;100462.23;117403;1182;21861;-55
2022/03/02 08:36:35;;;;;;;9.30;7.00;;;;;;;4.36;54.09;100458.10;117370;1184;21922;-55
2022/03/02 08:39:06;;;;;;;10.50;7.90;;;;;;;4.37;54.17;100460.89;117384;1183;21931;-55
2022/03/02 08:41:35;;;;;;;10.40;7.90;;;;;;;4.40;54.19;100460.75;117334;1183;23642;-62
2022/03/02 08:44:05;;;;;;;12.00;7.90;;;;;;;4.42;54.07;100458.19;117252;1182;21884;-55
2022/03/02 08:46:33;;;;;;;10.60;8.20;;;;;;;4.46;54.00;100457.70;117316;1185;21850;-55
2022/03/02 08:49:02;;;;;;;9.50;7.80;;;;;;;4.50;54.45;100457.06;117342;1182;24304;-61
2022/03/02 08:51:31;;;;;;;10.70;8.20;;;;;;;4.56;54.43;100456.11;117341;1182;24365;-55
2022/03/02 08:54:02;;;;;;;10.70;8.30;;;;;;;4.65;54.58;100455.18;117293;1185;21861;-60
2022/03/02 08:56:37;;;;;;;11.50;8.50;;;;;;;4.74;54.68;100450.79;117339;1182;21847;-55
2022/03/02 08:59:05;;;;;;;10.90;8.50;;;;;;;4.84;54.63;100451.97;117241;1186;22976;-54
2022/03/02 09:01:37;;;;;;;12.10;9.20;;;;;;;4.89;54.29;100450.61;117343;1185;22243;-54
2022/03/02 09:04:05;;;;;;;10.40;8.80;;;;;;;4.91;54.30;100448.54;117344;1186;21842;-60
2022/03/02 09:06:35;;;;;;;11.80;9.10;;;;;;;4.95;54.54;100448.42;117463;1180;23717;-61
2022/03/02 09:09:05;;;;;;;12.20;9.00;;;;;;;5.01;54.50;100444.50;117346;1182;21832;-56
2022/03/02 09:11:43;;;;;;;13.80;9.90;;;;;;;5.07;54.68;100442.66;117340;1182;23415;-61
2022/03/02 09:14:12;;;;;;;12.20;9.30;;;;;;;5.13;54.42;100441.67;117226;1186;21859;-60
2022/03/02 09:16:41;;;;;;;14.50;10.20;;;;;;;5.20;54.21;100442.27;117306;1183;21841;-56
2022/03/02 09:19:17;;;;;;;13.30;10.40;;;;;;;5.26;54.68;100441.80;117171;1182;23455;-56
2022/03/02 09:21:45;;;;;;;15.60;11.40;;;;;;;5.33;54.52;100441.35;117324;1185;23016;-60
2022/03/02 09:24:14;;;;;;;15.60;11.10;;;;;;;5.39;54.58;100438.65;117333;1186;22924;-59
2022/03/02 09:26:42;;;;;;;18.20;12.60;;;;;;;5.46;54.41;100436.80;117366;1182;22076;-56
2022/03/02 09:29:10;;;;;;;18.50;13.00;;;;;;;5.54;54.66;100433.39;117353;1182;21854;-55
2022/03/02 09:31:41;;;;;;;18.30;13.10;;;;;;;5.63;54.68;100430.16;117410;1186;24156;-57
2022/03/02 09:34:10;;;;;;;19.00;14.00;;;;;;;5.75;54.61;100426.08;117262;1186;21848;-60
2022/03/02 09:36:39;;;;;;;20.30;12.70;;;;;;;5.93;55.34;100418.38;117177;1185;21858;-59
2022/03/02 09:39:09;;;;;;;19.00;13.30;;;;;;;6.17;55.09;100416.32;117209;1186;22586;-56
2022/03/02 09:41:40;;;;;;;19.10;13.30;;;;;;;6.38;55.34;100411.89;117359;1182;22641;-59
2022/03/02 09:44:11;;;;;;;20.30;14.40;;;;;;;6.58;55.18;100413.75;117319;1182;21839;-56
2022/03/02 09:46:39;;;;;;;19.60;13.80;;;;;;;6.74;55.31;100411.89;117382;1186;22819;-58
2022/03/02 09:49:10;;;;;;;20.90;14.20;;;;;;;6.87;55.22;100405.48;117346;1182;21849;-56
2022/03/02 09:51:40;;;;;;;18.90;14.10;;;;;;;6.96;55.13;100404.13;117380;1183;23442;-57
2022/03/02 09:54:08;;;;;;;19.60;13.70;;;;;;;7.03;54.97;100402.23;117363;1182;21871;-56
2022/03/02 09:56:36;;;;;;;20.10;14.10;;;;;;;7.05;55.03;100402.06;117898;1185;22639;-56
2022/03/02 09:59:07;;;;;;;20.90;14.30;;;;;;;7.06;54.95;100398.75;117344;1185;23625;-59
2022/03/02 10:01:35;;;;;;;;;;;;;;;7.06;55.03;100392.45;117429;1183;22294;-59
2022/03/02 10:04:21;;;;;;;18.60;12.70;;;;;;;7.05;54.79;100389.66;117397;1185;22928;-58
2022/03/02 10:07:26;;;;;;;26.80;14.70;;;;;;;7.05;54.73;100384.27;117305;1182;21852;-56
2022/03/02 10:09:47;;;;;;;26.30;14.70;;;;;;;7.07;54.96;100379.72;117282;1185;23432;-56
2022/03/02 10:12:21;;;;;;;28.20;17.70;;;;;;;7.09;54.83;100377.09;117308;1182;22511;-58
2022/03/02 10:14:57;;;;;;;48.40;18.20;;;;;;;7.12;54.60;100364.02;117243;1183;21845;-57
2022/03/02 10:17:30;;;;;;;38.00;21.00;;;;;;;7.10;55.07;100362.97;117299;1183;22979;-56
2022/03/02 10:20:07;;;;;;;31.80;16.80;;;;;;;7.06;54.79;100361.92;117446;1186;21855;-58
2022/03/02 10:23:00;;;;;;;21.90;14.30;;;;;;;7.02;54.95;100355.64;117288;1187;21853;-58
2022/03/02 10:25:42;;;;;;;27.70;15.10;;;;;;;7.01;54.95;100355.63;117204;1184;21854;-57
2022/03/02 10:28:10;;;;;;;26.10;15.80;;;;;;;7.02;54.85;100354.94;117158;1186;21988;-57
2022/03/02 10:30:40;;;;;;;21.00;14.90;;;;;;;7.05;54.97;100348.66;117245;1186;23653;-57
2022/03/02 10:33:25;;;;;;;24.00;16.00;;;;;;;7.10;55.10;100347.80;117279;1182;23456;-58
2022/03/02 10:36:03;;;;;;;22.50;15.70;;;;;;;7.17;55.01;100344.14;117291;1186;22928;-57
2022/03/02 10:39:08;;;;;;;21.60;14.70;;;;;;;7.25;54.95;100342.59;117130;1187;21846;-56
2022/03/02 10:41:39;;;;;;;23.60;13.60;;;;;;;7.30;55.00;100339.43;117319;1186;21847;-57
2022/03/02 10:44:15;;;;;;;19.40;13.20;;;;;;;7.33;54.78;100339.95;117316;1186;23673;-58
2022/03/02 10:46:47;;;;;;;20.60;14.00;;;;;;;7.37;54.88;100333.69;117236;1186;21854;-57
2022/03/02 10:49:19;;;;;;;22.10;13.40;;;;;;;7.37;54.86;100333.85;117272;1182;21862;-57
2022/03/02 10:51:47;;;;;;;19.00;12.20;;;;;;;7.35;54.79;100331.23;117202;1186;21868;-57
2022/03/02 10:54:21;;;;;;;16.40;11.80;;;;;;;7.33;54.86;100332.81;117158;1186;23621;-57
2022/03/02 10:56:54;;;;;;;15.30;11.40;;;;;;;7.32;54.96;100329.48;117311;1186;21865;-57
2022/03/02 10:59:24;;;;;;;16.60;11.80;;;;;;;7.32;54.66;100332.45;117290;1182;21842;-57
2022/03/02 11:01:52;;;;;;;19.20;11.10;;;;;;;7.29;54.61;100329.14;117298;1182;22837;-57
2022/03/02 11:04:22;;;;;;;18.30;11.50;;;;;;;7.29;54.78;100323.73;117078;1189;22982;-57
2022/03/02 11:06:52;;;;;;;15.80;11.20;;;;;;;7.28;54.81;100322.16;117379;1182;22912;-57
2022/03/02 11:09:41;;;;;;;19.40;11.80;;;;;;;7.29;54.75;100317.09;117282;1186;21875;-58
2022/03/02 11:12:09;;;;;;;16.50;11.90;;;;;;;7.28;54.64;100312.56;117193;1186;21856;-57
2022/03/02 11:14:59;;;;;;;16.20;11.60;;;;;;;7.31;54.39;100311.16;117267;1186;23477;-57
2022/03/02 11:17:29;;;;;;;14.70;11.30;;;;;;;7.32;54.55;100306.10;117285;1183;21850;-57
2022/03/02 11:19:58;;;;;;;17.10;11.60;;;;;;;7.30;54.74;100301.55;117307;1186;23471;-57
2022/03/02 11:22:27;;;;;;;17.80;12.00;;;;;;;7.39;54.66;100299.30;117268;1186;21850;-57
2022/03/02 11:24:57;;;;;;;15.40;11.90;;;;;;;7.46;54.50;100298.95;117316;1183;21852;-58